createdAt,value
2019-02-05T00:00:18.519Z,9.70
2019-02-05T00:02:44.655Z,8.23
2019-02-05T00:05:10.695Z,10.53
2019-02-05T00:07:36.761Z,9.30
2019-02-05T00:10:06.366Z,8.45
2019-02-05T00:12:32.465Z,9.38
2019-02-05T00:14:58.321Z,9.53
2019-02-05T00:17:24.161Z,9.07
2019-02-05T00:19:49.990Z,10.97
2019-02-05T00:22:16.107Z,9.97
2019-02-05T00:24:42.510Z,10.00
2019-02-05T00:27:08.348Z,10.85
2019-02-05T00:29:34.184Z,9.90
2019-02-05T00:32:00.024Z,9.67
2019-02-05T00:34:25.849Z,10.00
2019-02-05T00:36:51.674Z,9.90
2019-02-05T00:39:17.526Z,9.93
2019-02-05T00:41:43.375Z,9.80
2019-02-05T00:44:09.792Z,9.73
2019-02-05T00:46:35.924Z,10.20
2019-02-05T00:49:02.059Z,12.30
2019-02-05T00:51:28.149Z,10.10
2019-02-05T00:53:54.280Z,9.43
2019-02-05T00:56:20.088Z,9.20
2019-02-05T00:58:45.900Z,9.63
2019-02-05T01:01:11.961Z,10.70
2019-02-05T01:03:37.788Z,10.23
2019-02-05T01:06:04.017Z,10.57
2019-02-05T01:08:29.967Z,10.00
2019-02-05T01:10:56.164Z,10.10
2019-02-05T01:13:21.998Z,11.05
2019-02-05T01:15:47.846Z,9.97
2019-02-05T01:18:13.955Z,10.00
2019-02-05T01:20:39.806Z,10.10
2019-02-05T01:23:05.628Z,10.00
2019-02-05T01:25:32.122Z,12.30
2019-02-05T01:27:58.298Z,11.05
2019-02-05T01:30:26.051Z,11.65
2019-02-05T01:32:51.907Z,11.83
2019-02-05T01:35:19.722Z,12.10
2019-02-05T01:37:45.554Z,10.93
2019-02-05T01:40:17.375Z,10.77
2019-02-05T01:42:43.413Z,10.15
2019-02-05T01:45:12.135Z,10.93
2019-02-05T01:47:38.068Z,10.03
2019-02-05T01:50:06.912Z,10.37
2019-02-05T01:52:32.871Z,11.48
2019-02-05T01:54:58.695Z,10.53
2019-02-05T01:57:24.527Z,10.77
2019-02-05T01:59:50.457Z,11.53
2019-02-05T02:02:16.376Z,11.17
2019-02-05T02:04:42.488Z,10.20
2019-02-05T02:07:08.540Z,10.63
2019-02-05T02:09:34.674Z,11.73
2019-02-05T02:12:00.875Z,11.60
2019-02-05T02:14:27.033Z,11.63
2019-02-05T02:16:52.876Z,11.03
2019-02-05T02:19:18.798Z,11.80
2019-02-05T02:21:45.185Z,11.57
2019-02-05T02:24:11.353Z,11.00
2019-02-05T02:26:37.153Z,11.68
2019-02-05T02:29:03.466Z,12.27
2019-02-05T02:31:29.308Z,11.40
2019-02-05T02:33:58.552Z,12.03
2019-02-05T02:36:24.645Z,11.70
2019-02-05T02:38:53.293Z,11.88
2019-02-05T02:41:19.325Z,11.73
2019-02-05T02:43:48.181Z,11.80
2019-02-05T02:46:14.020Z,11.30
2019-02-05T02:48:39.883Z,11.13
2019-02-05T02:51:06.040Z,11.23
2019-02-05T02:53:31.858Z,11.20
2019-02-05T02:56:00.754Z,11.03
2019-02-05T02:58:27.104Z,12.15
2019-02-05T03:00:55.737Z,11.50
2019-02-05T03:03:21.574Z,12.23
2019-02-05T03:05:50.247Z,12.33
2019-02-05T03:08:16.100Z,11.65
2019-02-05T03:10:45.301Z,11.80
2019-02-05T03:13:11.126Z,12.20
2019-02-05T03:15:40.427Z,11.83
2019-02-05T03:18:06.273Z,12.73
2019-02-05T03:20:32.314Z,12.03
2019-02-05T03:22:58.128Z,12.03
2019-02-05T03:25:24.562Z,12.87
2019-02-05T03:27:53.534Z,11.48
2019-02-05T03:30:20.574Z,13.00
2019-02-05T03:32:46.501Z,11.93
2019-02-05T03:35:13.346Z,11.17
2019-02-05T03:37:39.713Z,12.70
2019-02-05T03:40:15.197Z,13.83
2019-02-05T03:42:41.007Z,11.95
2019-02-05T03:45:07.015Z,12.27
2019-02-05T03:47:32.871Z,12.00
2019-02-05T03:49:58.831Z,11.07
2019-02-05T03:52:25.872Z,11.05
2019-02-05T03:55:16.377Z,13.48
2019-02-05T03:57:51.531Z,12.98
2019-02-05T04:00:41.935Z,12.00
2019-02-05T04:03:40.412Z,12.25
2019-02-05T04:06:40.169Z,11.83
2019-02-05T04:09:16.460Z,11.85
2019-02-05T04:11:54.673Z,13.08
2019-02-05T04:14:56.730Z,10.88
2019-02-05T04:17:49.191Z,12.05
2019-02-05T04:20:52.644Z,12.23
2019-02-05T04:23:25.413Z,12.80
2019-02-05T04:26:06.977Z,11.80
2019-02-05T04:28:56.937Z,11.08
2019-02-05T04:32:02.918Z,10.70
2019-02-05T04:34:41.541Z,12.65
2019-02-05T04:37:28.282Z,11.28
2019-02-05T04:40:19.144Z,12.15
2019-02-05T04:42:54.893Z,12.43
2019-02-05T04:45:44.387Z,11.38
2019-02-05T04:48:31.336Z,10.82
2019-02-05T04:51:31.079Z,11.80
2019-02-05T04:54:16.386Z,10.10
2019-02-05T04:56:55.268Z,12.50
2019-02-05T04:59:31.045Z,12.33
2019-02-05T05:02:28.307Z,12.07
2019-02-05T05:05:19.747Z,11.33
2019-02-05T05:07:49.656Z,10.95
2019-02-05T05:10:15.481Z,10.95
2019-02-05T05:12:41.312Z,11.90
2019-02-05T05:15:08.536Z,11.97
2019-02-05T05:17:34.607Z,12.68
2019-02-05T05:20:00.812Z,14.10
2019-02-05T05:22:27.898Z,11.85
2019-02-05T05:24:54.023Z,12.78
2019-02-05T05:27:20.629Z,11.85
2019-02-05T05:29:46.754Z,13.30
2019-02-05T05:32:12.962Z,11.80
2019-02-05T05:34:39.157Z,12.75
2019-02-05T05:37:04.792Z,11.33
2019-02-05T05:39:30.593Z,11.83
2019-02-05T05:41:56.471Z,13.00
2019-02-05T05:44:22.283Z,11.40
2019-02-05T05:46:48.137Z,11.63
2019-02-05T05:49:14.000Z,18.57
2019-02-05T05:51:40.178Z,24.12
2019-02-05T05:54:06.241Z,15.50
2019-02-05T05:56:32.068Z,12.55
2019-02-05T05:58:58.209Z,12.20
2019-02-05T06:01:24.022Z,11.93
2019-02-05T06:03:49.846Z,13.27
2019-02-05T06:06:15.977Z,13.50
2019-02-05T06:08:41.822Z,11.93
2019-02-05T06:11:07.687Z,14.10
2019-02-05T06:13:33.971Z,12.00
2019-02-05T06:15:59.902Z,22.07
2019-02-05T06:18:25.778Z,29.27
2019-02-05T06:20:51.599Z,14.67
2019-02-05T06:23:17.433Z,13.33
2019-02-05T06:25:43.560Z,13.30
2019-02-05T06:28:09.419Z,13.15
2019-02-05T06:30:35.260Z,11.80
2019-02-05T06:33:01.387Z,11.13
2019-02-05T06:35:27.424Z,11.38
2019-02-05T06:37:53.555Z,12.00
2019-02-05T06:40:20.435Z,12.10
2019-02-05T06:42:46.278Z,12.15
2019-02-05T06:45:13.694Z,11.83
2019-02-05T06:47:39.995Z,13.45
2019-02-05T06:50:08.718Z,12.20
2019-02-05T06:52:34.529Z,13.15
2019-02-05T06:55:00.679Z,12.60
2019-02-05T06:57:26.889Z,14.35
2019-02-05T06:59:52.727Z,11.63
2019-02-05T07:02:18.924Z,12.60
2019-02-05T07:04:44.769Z,12.55
2019-02-05T07:07:10.585Z,13.17
2019-02-05T07:09:36.724Z,12.57
2019-02-05T07:12:05.698Z,11.25
2019-02-05T07:14:31.519Z,13.62
2019-02-05T07:17:00.411Z,14.73
2019-02-05T07:19:26.516Z,16.55
2019-02-05T07:21:55.406Z,13.80
2019-02-05T07:24:21.660Z,14.18
2019-02-05T07:26:47.794Z,13.72
2019-02-05T07:29:13.832Z,14.25
2019-02-05T07:31:39.789Z,15.55
2019-02-05T07:34:05.786Z,16.30
2019-02-05T07:36:31.642Z,18.12
2019-02-05T07:39:00.733Z,19.50
2019-02-05T07:41:26.898Z,17.10
2019-02-05T07:43:55.813Z,18.33
2019-02-05T07:46:21.651Z,18.85
2019-02-05T07:48:50.562Z,19.30
2019-02-05T07:51:16.386Z,18.37
2019-02-05T07:53:44.579Z,18.73
2019-02-05T07:56:12.902Z,16.45
2019-02-05T07:58:39.658Z,15.23
2019-02-05T08:01:05.880Z,14.70
2019-02-05T08:03:32.010Z,15.75
2019-02-05T08:05:58.108Z,15.30
2019-02-05T08:08:24.407Z,16.65
2019-02-05T08:10:53.569Z,17.42
2019-02-05T08:13:19.663Z,18.75
2019-02-05T08:15:48.314Z,18.73
2019-02-05T08:18:14.159Z,19.80
2019-02-05T08:20:42.801Z,17.27
2019-02-05T08:23:08.866Z,17.45
2019-02-05T08:25:37.759Z,19.48
2019-02-05T08:28:04.179Z,17.87
2019-02-05T08:30:56.277Z,19.57
2019-02-05T08:33:22.089Z,24.00
2019-02-05T08:35:47.928Z,23.13
2019-02-05T08:38:13.854Z,20.10
2019-02-05T08:40:40.193Z,22.43
2019-02-05T08:43:06.237Z,20.10
2019-02-05T08:45:33.947Z,18.77
2019-02-05T08:48:00.037Z,19.30
2019-02-05T08:50:27.603Z,19.63
2019-02-05T08:52:53.984Z,21.40
2019-02-05T08:55:20.008Z,20.03
2019-02-05T08:57:46.961Z,19.20
2019-02-05T09:00:21.844Z,21.33
2019-02-05T09:02:48.510Z,20.60
2019-02-05T09:05:14.846Z,19.93
2019-02-05T09:07:40.763Z,19.63
2019-02-05T09:10:10.641Z,20.73
2019-02-05T09:12:36.589Z,18.87
2019-02-05T09:15:05.732Z,16.90
2019-02-05T09:17:31.567Z,14.87
2019-02-05T09:19:57.399Z,14.63
2019-02-05T09:22:23.527Z,16.60
2019-02-05T09:24:49.346Z,13.57
2019-02-05T09:27:15.593Z,13.23
2019-02-05T09:29:41.394Z,12.50
2019-02-05T09:32:07.495Z,13.07
2019-02-05T09:34:33.334Z,17.90
2019-02-05T09:36:59.175Z,11.73
2019-02-05T09:39:24.981Z,13.10
2019-02-05T09:41:50.978Z,10.30
2019-02-05T09:44:16.860Z,11.03
2019-02-05T09:46:43.009Z,13.07
2019-02-05T09:49:09.199Z,10.80
2019-02-05T09:51:35.335Z,10.60
2019-02-05T09:54:01.180Z,9.77
2019-02-05T09:56:27.106Z,9.47
2019-02-05T09:58:53.232Z,10.27
2019-02-05T10:01:19.025Z,10.40
2019-02-05T10:03:44.894Z,9.60
2019-02-05T10:06:10.726Z,9.90
2019-02-05T10:08:36.555Z,8.50
2019-02-05T10:11:02.797Z,7.33
2019-02-05T10:13:28.882Z,7.57
2019-02-05T10:15:54.710Z,7.20
2019-02-05T10:18:20.516Z,8.30
2019-02-05T10:20:46.817Z,8.23
2019-02-05T10:23:12.758Z,8.48
2019-02-05T10:25:41.599Z,7.70
2019-02-05T10:28:07.522Z,8.30
2019-02-05T10:30:36.452Z,6.47
2019-02-05T10:33:03.809Z,9.25
2019-02-05T10:35:29.732Z,7.10
2019-02-05T10:37:55.695Z,7.30
2019-02-05T10:40:23.548Z,9.00
2019-02-05T10:42:49.578Z,5.27
2019-02-05T10:45:18.126Z,5.47
2019-02-05T10:47:43.983Z,6.90
2019-02-05T10:50:12.706Z,5.73
2019-02-05T10:52:38.950Z,6.45
2019-02-05T10:55:08.001Z,5.97
2019-02-05T10:57:33.929Z,4.75
2019-02-05T11:00:08.478Z,5.43
2019-02-05T11:02:27.796Z,5.08
2019-02-05T11:04:53.643Z,5.70
2019-02-05T11:07:19.490Z,5.47
2019-02-05T11:09:45.598Z,4.60
2019-02-05T11:12:11.713Z,5.17
2019-02-05T11:14:37.747Z,5.65
2019-02-05T11:17:03.891Z,4.50
2019-02-05T11:19:34.273Z,5.05
2019-02-05T11:22:00.376Z,4.87
2019-02-05T11:24:29.143Z,5.70
2019-02-05T11:26:55.208Z,4.72
2019-02-05T11:29:24.249Z,5.72
2019-02-05T11:31:50.123Z,7.60
2019-02-05T11:34:19.048Z,5.70
2019-02-05T11:36:44.965Z,5.35
2019-02-05T11:39:14.455Z,5.77
2019-02-05T11:41:40.281Z,5.70
2019-02-05T11:44:06.109Z,5.60
2019-02-05T11:46:32.208Z,6.17
2019-02-05T11:48:58.343Z,6.50
2019-02-05T11:51:24.195Z,5.72
2019-02-05T11:53:50.283Z,5.20
2019-02-05T11:56:19.088Z,5.85
2019-02-05T11:58:44.950Z,4.92
2019-02-05T12:01:14.369Z,5.07
2019-02-05T12:03:40.586Z,5.25
2019-02-05T12:06:09.346Z,4.65
2019-02-05T12:08:35.286Z,5.15
2019-02-05T12:11:04.847Z,5.30
2019-02-05T12:13:30.721Z,5.40
2019-02-05T12:15:57.083Z,5.12
2019-02-05T12:18:23.222Z,5.40
2019-02-05T12:20:49.096Z,4.60
2019-02-05T12:23:15.522Z,4.73
2019-02-05T12:25:41.386Z,4.83
2019-02-05T12:28:08.603Z,6.07
2019-02-05T12:30:45.035Z,5.45
2019-02-05T12:33:07.088Z,4.30
2019-02-05T12:35:33.208Z,5.20
2019-02-05T12:37:59.579Z,4.42
2019-02-05T12:40:25.784Z,4.28
2019-02-05T12:42:54.552Z,4.40
2019-02-05T12:45:22.964Z,3.98
2019-02-05T12:47:48.932Z,4.80
2019-02-05T12:50:17.635Z,4.90
2019-02-05T12:52:43.600Z,4.80
2019-02-05T12:55:14.089Z,4.10
2019-02-05T12:57:38.289Z,4.55
2019-02-05T13:00:32.037Z,4.00
2019-02-05T13:02:57.994Z,4.85
2019-02-05T13:05:24.319Z,4.97
2019-02-05T13:07:50.441Z,5.10
2019-02-05T13:10:22.969Z,4.72
2019-02-05T13:12:49.055Z,4.15
2019-02-05T13:15:15.159Z,6.30
2019-02-05T13:17:41.353Z,4.28
2019-02-05T13:20:11.049Z,4.12
2019-02-05T13:22:37.304Z,3.65
2019-02-05T13:25:06.960Z,5.05
2019-02-05T13:27:33.117Z,5.28
2019-02-05T13:29:58.967Z,4.60
2019-02-05T13:32:24.864Z,3.93
2019-02-05T13:34:51.005Z,3.90
2019-02-05T13:37:16.865Z,4.50
2019-02-05T13:39:42.685Z,4.40
2019-02-05T13:42:08.862Z,12.03
2019-02-05T13:44:34.801Z,4.92
2019-02-05T13:47:01.151Z,5.45
2019-02-05T13:49:27.380Z,4.72
2019-02-05T13:51:53.219Z,4.55
2019-02-05T13:54:19.341Z,4.97
2019-02-05T13:56:45.206Z,4.33
2019-02-05T13:59:11.018Z,4.43
2019-02-05T14:01:36.852Z,4.77
2019-02-05T14:04:02.901Z,5.10
2019-02-05T14:06:29.195Z,4.85
2019-02-05T14:08:55.316Z,7.12
2019-02-05T14:11:21.501Z,5.28
2019-02-05T14:13:47.333Z,5.12
2019-02-05T14:16:13.175Z,4.90
2019-02-05T14:18:39.259Z,4.70
2019-02-05T14:21:05.113Z,5.22
2019-02-05T14:23:30.948Z,5.43
2019-02-05T14:25:59.586Z,4.60
2019-02-05T14:28:24.783Z,4.08
2019-02-05T14:30:51.918Z,4.23
2019-02-05T14:33:17.965Z,8.95
2019-02-05T14:35:43.990Z,5.20
2019-02-05T14:38:10.035Z,5.05
2019-02-05T14:40:35.852Z,4.47
2019-02-05T14:43:01.695Z,5.07
2019-02-05T14:45:27.680Z,4.50
2019-02-05T14:47:53.483Z,3.93
2019-02-05T14:50:27.514Z,4.97
2019-02-05T14:52:53.811Z,5.05
2019-02-05T14:55:19.657Z,4.53
2019-02-05T14:57:45.877Z,4.50
2019-02-05T15:00:15.555Z,4.80
2019-02-05T15:02:41.666Z,4.17
2019-02-05T15:05:09.333Z,3.35
2019-02-05T15:07:35.179Z,4.00
2019-02-05T15:10:01.296Z,3.57
2019-02-05T15:12:27.513Z,3.55
2019-02-05T15:14:53.360Z,3.80
2019-02-05T15:17:19.196Z,3.97
2019-02-05T15:19:45.045Z,3.10
2019-02-05T15:22:10.872Z,3.40
2019-02-05T15:24:38.863Z,3.20
2019-02-05T15:27:04.645Z,3.35
2019-02-05T15:29:30.503Z,3.57
2019-02-05T15:31:56.317Z,3.33
2019-02-05T15:34:22.515Z,3.40
2019-02-05T15:36:51.283Z,3.87
2019-02-05T15:39:17.401Z,3.80
2019-02-05T15:41:44.609Z,4.85
2019-02-05T15:44:10.924Z,3.90
2019-02-05T15:46:39.856Z,3.40
2019-02-05T15:49:05.958Z,3.83
2019-02-05T15:51:34.848Z,3.60
2019-02-05T15:54:01.042Z,3.00
2019-02-05T15:56:29.893Z,3.35
2019-02-05T15:58:55.973Z,3.17
2019-02-05T16:01:22.520Z,3.58
2019-02-05T16:03:48.568Z,2.45
2019-02-05T16:06:14.332Z,3.67
2019-02-05T16:08:40.174Z,2.77
2019-02-05T16:11:06.191Z,3.23
2019-02-05T16:13:36.731Z,2.70
2019-02-05T16:16:03.060Z,4.83
2019-02-05T16:18:32.092Z,5.95
2019-02-05T16:20:58.594Z,5.87
2019-02-05T16:23:24.430Z,5.80
2019-02-05T16:25:50.569Z,6.70
2019-02-05T16:28:19.480Z,6.15
2019-02-05T16:30:45.581Z,7.65
2019-02-05T16:33:17.755Z,8.30
2019-02-05T16:35:43.583Z,9.38
2019-02-05T16:38:09.430Z,7.40
2019-02-05T16:40:38.461Z,6.78
2019-02-05T16:43:04.737Z,7.85
2019-02-05T16:45:30.664Z,8.23
2019-02-05T16:47:56.621Z,9.70
2019-02-05T16:50:34.516Z,14.27
2019-02-05T16:53:00.446Z,10.40
2019-02-05T16:55:26.942Z,9.85
2019-02-05T16:57:52.880Z,10.53
2019-02-05T17:00:25.500Z,8.70
2019-02-05T17:02:51.445Z,7.55
2019-02-05T17:05:19.254Z,7.30
2019-02-05T17:07:45.347Z,6.70
2019-02-05T17:10:21.375Z,7.08
2019-02-05T17:12:47.220Z,6.28
2019-02-05T17:15:15.234Z,6.80
2019-02-05T17:17:41.536Z,7.50
2019-02-05T17:20:10.954Z,7.85
2019-02-05T17:22:37.586Z,8.10
2019-02-05T17:25:06.831Z,7.85
2019-02-05T17:27:32.943Z,8.48
2019-02-05T17:29:59.508Z,7.62
2019-02-05T17:32:25.363Z,7.67
2019-02-05T17:34:51.167Z,9.03
2019-02-05T17:37:17.009Z,8.87
2019-02-05T17:39:42.801Z,9.07
2019-02-05T17:42:08.725Z,14.47
2019-02-05T17:44:34.543Z,12.40
2019-02-05T17:47:00.684Z,11.63
2019-02-05T17:49:26.521Z,10.43
2019-02-05T17:51:52.446Z,10.13
2019-02-05T17:54:18.279Z,9.70
2019-02-05T17:56:44.164Z,8.93
2019-02-05T17:59:09.994Z,10.83
2019-02-05T18:01:35.948Z,10.57
2019-02-05T18:04:01.774Z,9.93
2019-02-05T18:06:27.919Z,8.70
2019-02-05T18:08:53.738Z,10.53
2019-02-05T18:11:20.011Z,10.00
2019-02-05T18:13:45.774Z,10.20
2019-02-05T18:16:11.758Z,8.90
2019-02-05T18:18:37.606Z,9.00
2019-02-05T18:21:03.790Z,11.20
2019-02-05T18:23:29.949Z,14.43
2019-02-05T18:25:55.762Z,18.92
2019-02-05T18:28:21.615Z,15.77
2019-02-05T18:30:47.693Z,20.67
2019-02-05T18:33:13.744Z,19.37
2019-02-05T18:35:42.998Z,33.70
2019-02-05T18:38:35.007Z,32.20
2019-02-05T18:41:00.849Z,24.12
2019-02-05T18:43:26.668Z,20.37
2019-02-05T18:45:52.521Z,22.00
2019-02-05T18:48:18.368Z,20.27
2019-02-05T18:50:44.197Z,17.93
2019-02-05T18:53:11.863Z,17.40
2019-02-05T18:55:40.752Z,15.90
2019-02-05T18:58:09.550Z,15.35
2019-02-05T19:00:38.712Z,17.10
2019-02-05T19:03:14.798Z,19.20
2019-02-05T19:05:32.629Z,17.30
2019-02-05T19:07:58.466Z,16.10
2019-02-05T19:10:27.205Z,18.10
2019-02-05T19:12:53.024Z,18.70
2019-02-05T19:15:21.972Z,14.03
2019-02-05T19:17:47.785Z,17.40
2019-02-05T19:20:15.438Z,15.50
2019-02-05T19:22:41.958Z,17.55
2019-02-05T19:25:09.999Z,18.30
2019-02-05T19:27:35.866Z,16.95
2019-02-05T19:30:04.407Z,18.20
2019-02-05T19:32:30.314Z,16.15
2019-02-05T19:34:56.521Z,17.00
2019-02-05T19:37:22.619Z,19.82
2019-02-05T19:39:49.147Z,17.07
2019-02-05T19:42:14.981Z,18.95
2019-02-05T19:44:42.859Z,17.50
2019-02-05T19:47:08.849Z,17.55
2019-02-05T19:49:34.889Z,14.98
2019-02-05T19:52:01.012Z,10.65
2019-02-05T19:54:26.846Z,10.98
2019-02-05T19:56:52.758Z,10.33
2019-02-05T19:59:18.922Z,9.88
2019-02-05T20:01:44.832Z,10.83
2019-02-05T20:04:11.096Z,11.60
2019-02-05T20:06:37.333Z,21.73
2019-02-05T20:09:07.274Z,13.67
2019-02-05T20:11:33.113Z,14.38
2019-02-05T20:13:59.045Z,11.13
2019-02-05T20:16:24.875Z,10.00
2019-02-05T20:18:50.781Z,10.40
2019-02-05T20:21:16.638Z,11.83
2019-02-05T20:23:42.439Z,11.87
2019-02-05T20:26:08.577Z,12.87
2019-02-05T20:28:34.789Z,16.02
2019-02-05T20:31:00.620Z,15.83
2019-02-05T20:33:26.720Z,18.23
2019-02-05T20:35:52.582Z,14.85
2019-02-05T20:38:18.712Z,15.10
2019-02-05T20:40:44.539Z,15.63
2019-02-05T20:43:10.770Z,16.10
2019-02-05T20:45:36.590Z,18.37
2019-02-05T20:48:03.695Z,18.20
2019-02-05T20:50:32.308Z,18.35
2019-02-05T20:52:58.432Z,19.70
2019-02-05T20:55:24.481Z,17.60
2019-02-05T20:57:50.394Z,17.05
2019-02-05T21:00:22.182Z,19.07
2019-02-05T21:02:48.528Z,17.35
2019-02-05T21:05:16.554Z,19.75
2019-02-05T21:07:42.499Z,18.15
2019-02-05T21:10:12.052Z,19.33
2019-02-05T21:12:37.884Z,16.50
2019-02-05T21:15:09.735Z,17.00
2019-02-05T21:17:35.572Z,15.98
2019-02-05T21:20:02.052Z,16.10
2019-02-05T21:22:29.263Z,16.97
2019-02-05T21:24:55.186Z,13.95
2019-02-05T21:27:21.057Z,11.63
2019-02-05T21:29:46.898Z,11.97
2019-02-05T21:32:12.923Z,8.73
2019-02-05T21:34:38.777Z,8.87
2019-02-05T21:37:04.613Z,10.63
2019-02-05T21:39:30.725Z,9.30
2019-02-05T21:41:56.865Z,8.40
2019-02-05T21:44:22.728Z,9.35
2019-02-05T21:46:48.844Z,9.33
2019-02-05T21:49:19.579Z,8.35
2019-02-05T21:51:45.942Z,8.40
2019-02-05T21:54:14.550Z,8.35
2019-02-05T21:56:40.385Z,9.48
2019-02-05T21:59:09.254Z,9.90
2019-02-05T22:01:35.225Z,9.40
2019-02-05T22:04:04.035Z,10.70
2019-02-05T22:06:30.221Z,12.37
2019-02-05T22:08:56.293Z,12.07
2019-02-05T22:11:22.319Z,11.57
2019-02-05T22:13:48.546Z,12.85
2019-02-05T22:16:14.390Z,11.80
2019-02-05T22:18:40.477Z,12.57
2019-02-05T22:21:06.765Z,13.80
2019-02-05T22:23:32.643Z,14.70
2019-02-05T22:25:58.458Z,13.83
2019-02-05T22:28:24.698Z,16.03
2019-02-05T22:30:51.148Z,13.45
2019-02-05T22:33:16.997Z,15.38
2019-02-05T22:35:42.849Z,16.27
2019-02-05T22:38:08.646Z,15.70
2019-02-05T22:40:34.751Z,16.23
2019-02-05T22:43:01.175Z,15.20
2019-02-05T22:45:30.683Z,14.75
2019-02-05T22:47:56.787Z,14.58
2019-02-05T22:50:25.556Z,15.72
2019-02-05T22:52:51.829Z,12.90
2019-02-05T22:55:17.687Z,12.47
2019-02-05T22:57:43.552Z,11.57
2019-02-05T23:00:13.312Z,14.10
2019-02-05T23:02:39.434Z,11.35
2019-02-05T23:05:09.159Z,11.88
2019-02-05T23:07:35.385Z,12.28
2019-02-05T23:10:10.658Z,9.43
2019-02-05T23:12:36.911Z,9.68
2019-02-05T23:15:10.163Z,9.08
2019-02-05T23:17:36.267Z,9.33
2019-02-05T23:20:05.904Z,9.15
2019-02-05T23:22:32.657Z,9.40
2019-02-05T23:24:58.479Z,9.33
2019-02-05T23:27:24.892Z,9.80
2019-02-05T23:29:50.770Z,9.00
2019-02-05T23:32:16.625Z,8.77
2019-02-05T23:34:42.553Z,9.37
2019-02-05T23:37:08.778Z,9.77
2019-02-05T23:39:34.997Z,8.80
2019-02-05T23:42:02.274Z,9.63
2019-02-05T23:44:28.139Z,9.55
2019-02-05T23:46:54.592Z,9.13
2019-02-05T23:49:20.766Z,10.28
2019-02-05T23:51:46.973Z,9.15
2019-02-05T23:54:12.935Z,9.23
2019-02-05T23:56:38.761Z,10.60
2019-02-05T23:59:04.864Z,8.83
